Pu Dun — XUUB9 — position and weather

sailwx.info

Track history (hours):
 
Tides and Currents Weather Stations Pressure Air Temp Water Temp Dewpoint Dewpoint Depression Visibility Wind Speed Wind Dir Waves Ship Positions

Pu Dun

Last reported at 2016-May-03 18:20 UTC. Time now 2016-May-26 14:36 UTC.
Position N 37°40' E 122°31'.
Warning: this ship's position is 22 days out of date.

Length 75 m; draft 5.3 m.

Type: Cargo ship. MMSI: 515213000.

Date/timePositionNaut miles runAvg speedWind from/ knotsBaromVisibWave heightAir tempDewpointWater temp
2016-May-03 18:20N 37°40' E 122°31'7 9.2
2016-May-03 17:33N 37°41' E 122°22'10 9.6
2016-May-03 16:29N 37°41' E 122°09'  
2016-Apr-29 09:33N 37°37' E 121°27'4 3.6
2016-Apr-29 08:32N 37°40' E 121°30'27 4.9
2016-Apr-29 03:07N 37°56' E 121°03'712.0
2016-Apr-29 02:33N 37°58' E 120°55'1312.6
2016-Apr-29 01:33N 38°01' E 120°40'1212.2
2016-Apr-29 00:33N 38°04' E 120°25'13110.9
2016-Apr-28 12:33N 38°57' E 117°52'5 4.9
2016-Apr-28 11:29N 38°59' E 117°45'0 0.0
2016-Apr-28 10:29N 38°59' E 117°45'0 0.0
2016-Apr-28 09:29N 38°59' E 117°45'0 0.0
2016-Apr-28 08:29N 38°59' E 117°45'0 0.0
2016-Apr-28 07:29N 38°59' E 117°45'0 0.0
2016-Apr-28 06:17N 38°59' E 117°45'0 0.0
2016-Apr-28 05:17N 38°59' E 117°45'0 0.0
2016-Apr-28 04:29N 38°59' E 117°45'0 0.0
2016-Apr-28 03:29N 38°59' E 117°45'1 1.5
2016-Apr-28 02:31N 38°58' E 117°47'9 7.9
2016-Apr-28 01:26N 38°58' E 117°58'  
Track history (hours):
 
Tides and Currents Weather Stations Pressure Air Temp Water Temp Dewpoint Dewpoint Depression Visibility Wind Speed Wind Dir Waves Ship Positions

Pu Dun

Last reported at 2016-May-03 18:20 UTC. Time now 2016-May-26 14:36 UTC.
Position N 37°40' E 122°31'.
Warning: this ship's position is 22 days out of date.

Length 75 m; draft 5.3 m.

Type: Cargo ship. MMSI: 515213000.

Date/timePositionNaut miles runAvg speedWind from/ knotsBaromVisibWave heightAir tempDewpointWater temp
2016-May-03 18:20N 37°40' E 122°31'7 9.2
2016-May-03 17:33N 37°41' E 122°22'10 9.6
2016-May-03 16:29N 37°41' E 122°09'  
2016-Apr-29 09:33N 37°37' E 121°27'4 3.6
2016-Apr-29 08:32N 37°40' E 121°30'27 4.9
2016-Apr-29 03:07N 37°56' E 121°03'712.0
2016-Apr-29 02:33N 37°58' E 120°55'1312.6
2016-Apr-29 01:33N 38°01' E 120°40'1212.2
2016-Apr-29 00:33N 38°04' E 120°25'13110.9
2016-Apr-28 12:33N 38°57' E 117°52'5 4.9
2016-Apr-28 11:29N 38°59' E 117°45'0 0.0
2016-Apr-28 10:29N 38°59' E 117°45'0 0.0
2016-Apr-28 09:29N 38°59' E 117°45'0 0.0
2016-Apr-28 08:29N 38°59' E 117°45'0 0.0
2016-Apr-28 07:29N 38°59' E 117°45'0 0.0
2016-Apr-28 06:17N 38°59' E 117°45'0 0.0
2016-Apr-28 05:17N 38°59' E 117°45'0 0.0
2016-Apr-28 04:29N 38°59' E 117°45'0 0.0
2016-Apr-28 03:29N 38°59' E 117°45'1 1.5
2016-Apr-28 02:31N 38°58' E 117°47'9 7.9
2016-Apr-28 01:26N 38°58' E 117°58'  

Dump ship's entire track history